Time;durP1;ratioP1;P1;durP2;ratioP2;P2;SDS_P1;SDS_P2;PMS_P1;PMS_P2;Temp;Humidity;BMP_temperature;BMP_pressure;BME280_temperature;BME280_humidity;BME280_pressure;Samples;Min_cycle;Max_cycle;Signal;HPM_P1;HPM_P2
2023/03/07 00:00:42;;;;;;;;;16.75;15.75;;;;;;;;4974748;28;11577;-82
2023/03/07 00:03:11;;;;;;;;;16.25;14.00;;;;;;;;4975327;28;12202;-81
2023/03/07 00:05:38;;;;;;;;;9.50;9.50;;;;;;;;4975560;28;11649;-83
2023/03/07 00:08:09;;;;;;;;;17.00;13.50;;;;;;;;4968380;28;11550;-82
2023/03/07 00:10:38;;;;;;;;;16.00;16.00;;;;;;;;4974444;28;11609;-82
2023/03/07 00:13:06;;;;;;;;;13.00;13.00;;;;;;;;4975966;28;11570;-81
2023/03/07 00:15:33;;;;;;;;;12.25;12.25;;;;;;;;4972126;28;11603;-81
2023/03/07 00:18:01;;;;;;;;;13.00;13.00;;;;;;;;4974083;28;11600;-82
2023/03/07 00:20:29;;;;;;;;;15.00;15.00;;;;;;;;4977754;28;11585;-81
2023/03/07 00:22:56;;;;;;;;;17.00;15.00;;;;;;;;4978699;28;11574;-81
2023/03/07 00:25:24;;;;;;;;;17.75;15.75;;;;;;;;4976569;28;11660;-82
2023/03/07 00:27:53;;;;;;;;;14.25;14.25;;;;;;;;4977699;28;11633;-83
2023/03/07 00:30:20;;;;;;;;;14.25;14.25;;;;;;;;4975062;28;11591;-82
2023/03/07 00:32:48;;;;;;;;;14.00;14.00;;;;;;;;4968136;28;11594;-80
2023/03/07 00:35:16;;;;;;;;;15.25;13.00;;;;;;;;4974897;28;11613;-82
2023/03/07 00:37:43;;;;;;;;;16.25;14.50;;;;;;;;4978659;28;11612;-81
2023/03/07 00:40:12;;;;;;;;;15.00;15.00;;;;;;;;4981681;28;11101;-82
2023/03/07 00:42:40;;;;;;;;;15.00;15.00;;;;;;;;4990217;28;11621;-82
2023/03/07 00:45:12;;;;;;;;;18.75;17.00;;;;;;;;4979607;28;11716;-82
2023/03/07 00:47:39;;;;;;;;;20.75;13.25;;;;;;;;4975935;28;11628;-82
2023/03/07 00:50:07;;;;;;;;;14.50;14.50;;;;;;;;4980110;28;11637;-82
2023/03/07 00:52:36;;;;;;;;;17.25;16.75;;;;;;;;4981324;28;11715;-82
2023/03/07 00:55:04;;;;;;;;;14.75;11.50;;;;;;;;4977064;28;11660;-81
2023/03/07 00:57:32;;;;;;;;;15.00;13.50;;;;;;;;4979130;28;11010;-79
2023/03/07 00:59:59;;;;;;;;;12.25;12.25;;;;;;;;4983235;28;11605;-81
2023/03/07 01:02:28;;;;;;;;;14.25;14.25;;;;;;;;4978838;28;11672;-80
2023/03/07 01:04:56;;;;;;;;;21.75;17.25;;;;;;;;4976864;28;11626;-82
2023/03/07 01:07:23;;;;;;;;;17.50;16.00;;;;;;;;4978410;28;12554;-81
2023/03/07 01:09:52;;;;;;;;;16.75;16.75;;;;;;;;4973548;28;11615;-82
2023/03/07 01:12:19;;;;;;;;;17.25;17.00;;;;;;;;4971349;28;11640;-82
2023/03/07 01:14:50;;;;;;;;;13.75;13.75;;;;;;;;4979048;28;11651;-82
2023/03/07 01:17:18;;;;;;;;;18.25;17.25;;;;;;;;4977109;28;11865;-81
2023/03/07 01:19:47;;;;;;;;;16.25;16.25;;;;;;;;4976246;28;11637;-81
2023/03/07 01:22:16;;;;;;;;;18.00;17.00;;;;;;;;4972617;28;11626;-81
2023/03/07 01:24:44;;;;;;;;;20.50;18.00;;;;;;;;4974519;28;11598;-81
2023/03/07 01:27:12;;;;;;;;;16.00;13.50;;;;;;;;4975541;28;11622;-82
2023/03/07 01:29:43;;;;;;;;;24.00;17.50;;;;;;;;4974305;28;11735;-81
2023/03/07 01:32:10;;;;;;;;;11.50;7.50;;;;;;;;4977002;28;11644;-81
2023/03/07 01:34:38;;;;;;;;;18.75;15.50;;;;;;;;4975043;28;11557;-81
2023/03/07 01:37:07;;;;;;;;;23.00;19.50;;;;;;;;4975799;28;11613;-82
2023/03/07 01:39:34;;;;;;;;;16.75;13.00;;;;;;;;4981705;28;11626;-82
2023/03/07 01:42:01;;;;;;;;;24.25;20.25;;;;;;;;4977940;28;11610;-82
2023/03/07 01:44:31;;;;;;;;;18.25;16.00;;;;;;;;4981779;28;11634;-82
2023/03/07 01:47:00;;;;;;;;;21.50;18.50;;;;;;;;4975184;28;11628;-82
2023/03/07 01:49:30;;;;;;;;;22.00;21.25;;;;;;;;4971482;28;11799;-81
2023/03/07 01:52:01;;;;;;;;;19.25;17.25;;;;;;;;4980929;28;11644;-82
2023/03/07 01:54:32;;;;;;;;;16.75;16.75;;;;;;;;4976235;28;11596;-81
2023/03/07 01:57:02;;;;;;;;;18.50;17.25;;;;;;;;4981311;28;11626;-82
2023/03/07 01:59:32;;;;;;;;;18.75;18.75;;;;;;;;4974409;28;11724;-81
2023/03/07 02:02:02;;;;;;;;;20.25;14.50;;;;;;;;4976570;28;11612;-81
2023/03/07 02:04:34;;;;;;;;;17.00;15.25;;;;;;;;4980516;28;11628;-81
2023/03/07 02:07:03;;;;;;;;;15.50;15.50;;;;;;;;4975263;28;11598;-83
2023/03/07 02:09:34;;;;;;;;;21.25;16.25;;;;;;;;4977394;28;11584;-83
2023/03/07 02:12:14;;;;;;;;;18.50;13.25;;;;;;;;4974834;28;12516;-82
2023/03/07 02:14:44;;;;;;;;;18.50;18.50;;;;;;;;4974384;28;11566;-82
2023/03/07 02:17:12;;;;;;;;;19.50;19.50;;;;;;;;4976307;28;11756;-82
2023/03/07 02:19:49;;;;;;;;;24.50;16.50;;;;;;;;4975750;28;11611;-82
2023/03/07 02:22:18;;;;;;;;;16.75;16.75;;;;;;;;4975507;28;12360;-82
2023/03/07 02:24:51;;;;;;;;;22.00;16.25;;;;;;;;4974099;28;11643;-81
2023/03/07 02:27:21;;;;;;;;;21.25;17.00;;;;;;;;4972853;28;11550;-81
2023/03/07 02:29:48;;;;;;;;;22.75;18.75;;;;;;;;4970232;28;11650;-83
2023/03/07 02:32:16;;;;;;;;;19.50;18.00;;;;;;;;4974442;28;11659;-82
2023/03/07 02:34:44;;;;;;;;;16.25;16.00;;;;;;;;4977660;28;11589;-82
2023/03/07 02:37:16;;;;;;;;;21.75;19.00;;;;;;;;4973024;28;11741;-81
2023/03/07 02:39:44;;;;;;;;;17.00;16.75;;;;;;;;4975144;28;11610;-82
2023/03/07 02:42:14;;;;;;;;;20.50;20.00;;;;;;;;4966585;28;11615;-81
2023/03/07 02:44:45;;;;;;;;;26.75;21.25;;;;;;;;4976292;28;11612;-82
2023/03/07 02:47:13;;;;;;;;;21.50;17.50;;;;;;;;4972324;28;11625;-82
2023/03/07 02:49:40;;;;;;;;;25.75;23.25;;;;;;;;4975401;28;11641;-82
2023/03/07 02:52:09;;;;;;;;;16.25;14.00;;;;;;;;4974475;28;11741;-82
2023/03/07 02:54:37;;;;;;;;;26.25;18.50;;;;;;;;4973603;28;11620;-82
2023/03/07 02:57:04;;;;;;;;;18.00;18.00;;;;;;;;4975057;28;11618;-82
2023/03/07 02:59:32;;;;;;;;;24.50;17.25;;;;;;;;4975396;28;11591;-80
2023/03/07 03:02:01;;;;;;;;;21.75;20.00;;;;;;;;4972340;28;11620;-81
2023/03/07 03:04:28;;;;;;;;;20.75;20.00;;;;;;;;4981281;28;12392;-82
2023/03/07 03:06:56;;;;;;;;;21.50;18.00;;;;;;;;4972422;28;11629;-81
2023/03/07 03:09:24;;;;;;;;;24.00;22.25;;;;;;;;4969816;28;12417;-82
2023/03/07 03:11:52;;;;;;;;;23.25;20.75;;;;;;;;4976010;28;11609;-82
2023/03/07 03:14:20;;;;;;;;;19.00;19.00;;;;;;;;4973711;28;11617;-82
2023/03/07 03:16:47;;;;;;;;;22.00;20.50;;;;;;;;4970629;28;11576;-80
2023/03/07 03:19:17;;;;;;;;;17.00;16.00;;;;;;;;4972868;28;11640;-81
2023/03/07 03:21:44;;;;;;;;;29.00;22.25;;;;;;;;4973212;28;11631;-81
2023/03/07 03:24:12;;;;;;;;;22.75;17.00;;;;;;;;4967413;28;11635;-82
2023/03/07 03:26:39;;;;;;;;;22.75;20.00;;;;;;;;4978553;28;11611;-81
2023/03/07 03:29:08;;;;;;;;;20.75;20.00;;;;;;;;4972881;28;11745;-81
2023/03/07 03:31:36;;;;;;;;;22.00;21.00;;;;;;;;4974165;28;11624;-82
2023/03/07 03:34:04;;;;;;;;;26.25;18.50;;;;;;;;4971834;28;11612;-81
2023/03/07 03:36:33;;;;;;;;;20.75;19.00;;;;;;;;4971560;28;11667;-81
2023/03/07 03:39:01;;;;;;;;;21.75;21.75;;;;;;;;4972118;28;12429;-80
2023/03/07 03:41:29;;;;;;;;;20.00;17.25;;;;;;;;4974219;28;11682;-82
2023/03/07 03:43:56;;;;;;;;;20.25;17.50;;;;;;;;4971310;28;11578;-82
2023/03/07 03:46:24;;;;;;;;;17.00;16.50;;;;;;;;4975667;28;11625;-83
2023/03/07 03:48:52;;;;;;;;;18.00;16.00;;;;;;;;4973249;28;11608;-82
2023/03/07 03:51:21;;;;;;;;;24.75;18.50;;;;;;;;4975360;28;11607;-82
2023/03/07 03:53:50;;;;;;;;;24.75;22.50;;;;;;;;4980641;28;11628;-82
2023/03/07 03:56:24;;;;;;;;;23.00;17.00;;;;;;;;4981173;28;11757;-82
2023/03/07 03:58:53;;;;;;;;;26.00;21.00;;;;;;;;4979246;28;11577;-83
2023/03/07 04:01:24;;;;;;;;;21.50;18.25;;;;;;;;4976826;28;11710;-83
2023/03/07 04:03:54;;;;;;;;;22.50;22.50;;;;;;;;4976073;28;11613;-82
2023/03/07 04:06:23;;;;;;;;;24.25;21.75;;;;;;;;4981850;28;11627;-83
2023/03/07 04:08:54;;;;;;;;;21.75;19.75;;;;;;;;4979013;28;11599;-84
2023/03/07 04:11:22;;;;;;;;;15.00;15.00;;;;;;;;4979955;28;11713;-83
2023/03/07 04:13:50;;;;;;;;;22.00;22.00;;;;;;;;4982199;28;11622;-81
2023/03/07 04:16:18;;;;;;;;;23.25;22.00;;;;;;;;4987055;28;12450;-81
2023/03/07 04:18:49;;;;;;;;;24.25;20.00;;;;;;;;4987100;28;11662;-80
2023/03/07 04:21:17;;;;;;;;;20.75;19.75;;;;;;;;4983387;28;11626;-82
2023/03/07 04:23:44;;;;;;;;;21.75;21.50;;;;;;;;4981779;28;11621;-82
2023/03/07 04:26:13;;;;;;;;;17.75;16.25;;;;;;;;4986746;28;11639;-82
2023/03/07 04:28:44;;;;;;;;;19.00;19.00;;;;;;;;4982622;28;11714;-81
2023/03/07 04:31:13;;;;;;;;;20.75;20.25;;;;;;;;4987624;28;11622;-81
2023/03/07 04:33:41;;;;;;;;;21.50;18.75;;;;;;;;4980559;28;11696;-79
2023/03/07 04:36:08;;;;;;;;;22.75;20.75;;;;;;;;4983386;28;11541;-81
2023/03/07 04:38:37;;;;;;;;;16.25;16.25;;;;;;;;4981692;28;11603;-80
2023/03/07 04:41:08;;;;;;;;;16.75;13.25;;;;;;;;4977657;28;11729;-80
2023/03/07 04:43:39;;;;;;;;;17.50;15.50;;;;;;;;4976295;28;11637;-80
2023/03/07 04:46:07;;;;;;;;;17.25;17.25;;;;;;;;4978547;28;11614;-80
2023/03/07 04:48:35;;;;;;;;;9.00;9.00;;;;;;;;4980279;28;11616;-80
2023/03/07 04:51:03;;;;;;;;;17.25;16.25;;;;;;;;4979513;28;11574;-81
2023/03/07 04:53:30;;;;;;;;;23.00;18.00;;;;;;;;4977231;28;11726;-82
2023/03/07 04:55:59;;;;;;;;;17.50;13.50;;;;;;;;4978695;28;11791;-81
2023/03/07 04:58:28;;;;;;;;;15.00;14.25;;;;;;;;4978743;28;11584;-80
2023/03/07 05:00:58;;;;;;;;;12.75;11.75;;;;;;;;4983013;28;11651;-81
2023/03/07 05:03:26;;;;;;;;;15.75;13.00;;;;;;;;4975805;28;12334;-82
2023/03/07 05:05:54;;;;;;;;;16.75;13.75;;;;;;;;4975332;28;11597;-81
2023/03/07 05:08:22;;;;;;;;;14.50;14.00;;;;;;;;4973675;28;11747;-81
2023/03/07 05:10:50;;;;;;;;;21.75;15.75;;;;;;;;4971693;28;11816;-81
2023/03/07 05:13:19;;;;;;;;;10.50;9.50;;;;;;;;4975996;28;12546;-82
2023/03/07 05:15:52;;;;;;;;;21.50;20.75;;;;;;;;4978727;28;11712;-82
2023/03/07 05:18:22;;;;;;;;;21.50;19.00;;;;;;;;4977119;28;11683;-82
2023/03/07 05:20:51;;;;;;;;;24.25;24.25;;;;;;;;4977376;28;11799;-82
2023/03/07 05:23:20;;;;;;;;;25.00;19.00;;;;;;;;4972383;28;11632;-81
2023/03/07 05:25:47;;;;;;;;;22.50;22.50;;;;;;;;4984051;28;11622;-81
2023/03/07 05:28:15;;;;;;;;;21.00;17.00;;;;;;;;4976676;28;11756;-81
2023/03/07 05:30:43;;;;;;;;;18.50;16.25;;;;;;;;4976412;28;11619;-80
2023/03/07 05:33:11;;;;;;;;;17.75;17.75;;;;;;;;4977083;28;11662;-84
2023/03/07 05:35:40;;;;;;;;;20.00;17.25;;;;;;;;4986999;28;11634;-81
2023/03/07 05:38:24;;;;;;;;;23.25;20.00;;;;;;;;4985223;28;11635;-81
2023/03/07 05:40:52;;;;;;;;;21.00;21.00;;;;;;;;4977225;28;11759;-82
2023/03/07 05:43:20;;;;;;;;;20.00;20.00;;;;;;;;4980773;28;11618;-78
2023/03/07 05:45:49;;;;;;;;;24.75;17.75;;;;;;;;4987011;28;11649;-81
2023/03/07 05:48:16;;;;;;;;;30.75;18.75;;;;;;;;4986602;28;11624;-80
2023/03/07 05:50:46;;;;;;;;;13.75;13.75;;;;;;;;4992499;28;11602;-82
2023/03/07 05:53:15;;;;;;;;;20.50;20.50;;;;;;;;4987015;28;11753;-82
2023/03/07 05:55:45;;;;;;;;;24.75;24.75;;;;;;;;4983846;28;11645;-81
2023/03/07 05:58:13;;;;;;;;;26.25;25.25;;;;;;;;4986887;28;11757;-81
2023/03/07 06:00:41;;;;;;;;;20.00;20.00;;;;;;;;4985736;28;11733;-81
2023/03/07 06:03:10;;;;;;;;;24.00;19.75;;;;;;;;4992378;28;11624;-81
2023/03/07 06:05:39;;;;;;;;;23.25;20.75;;;;;;;;4979563;28;11590;-81
2023/03/07 06:08:08;;;;;;;;;18.50;18.50;;;;;;;;4978273;28;11769;-81
2023/03/07 06:10:36;;;;;;;;;21.50;20.25;;;;;;;;4973883;28;11697;-82
2023/03/07 06:13:04;;;;;;;;;20.00;20.00;;;;;;;;4978095;28;11639;-82
2023/03/07 06:15:32;;;;;;;;;19.50;19.50;;;;;;;;4975683;28;11733;-82
2023/03/07 06:18:00;;;;;;;;;23.75;20.75;;;;;;;;4972411;28;11624;-81
2023/03/07 06:20:27;;;;;;;;;15.25;15.25;;;;;;;;4974427;28;11651;-82
2023/03/07 06:22:55;;;;;;;;;24.25;23.00;;;;;;;;4978549;28;11619;-82
2023/03/07 06:25:25;;;;;;;;;14.50;14.25;;;;;;;;4971068;28;11678;-81
2023/03/07 06:27:58;;;;;;;;;23.25;21.50;;;;;;;;4971831;28;11655;-83
2023/03/07 06:30:28;;;;;;;;;23.75;23.25;;;;;;;;4977568;28;11633;-83
2023/03/07 06:32:56;;;;;;;;;23.00;20.75;;;;;;;;4971982;28;11689;-80
2023/03/07 06:35:23;;;;;;;;;29.50;24.75;;;;;;;;4975208;28;11754;-82
2023/03/07 06:37:51;;;;;;;;;18.00;17.00;;;;;;;;4977551;28;11632;-82
2023/03/07 06:40:19;;;;;;;;;23.75;22.00;;;;;;;;4973013;28;11613;-83
2023/03/07 06:42:49;;;;;;;;;20.25;19.25;;;;;;;;4981601;28;12834;-80
2023/03/07 06:45:16;;;;;;;;;20.25;20.25;;;;;;;;4975033;28;12826;-82
2023/03/07 06:47:44;;;;;;;;;24.75;20.50;;;;;;;;4973316;28;11601;-83
2023/03/07 06:50:12;;;;;;;;;20.25;19.25;;;;;;;;4979278;28;11682;-82
2023/03/07 06:52:42;;;;;;;;;23.25;20.25;;;;;;;;4967067;28;11604;-82
2023/03/07 06:55:11;;;;;;;;;17.75;16.00;;;;;;;;4973505;28;11707;-76
2023/03/07 06:57:39;;;;;;;;;21.25;18.25;;;;;;;;4985565;28;11612;-80
2023/03/07 07:00:14;;;;;;;;;20.75;20.00;;;;;;;;4988214;28;11642;-81
2023/03/07 07:02:42;;;;;;;;;24.50;23.50;;;;;;;;4984057;28;11625;-81
2023/03/07 07:05:14;;;;;;;;;15.00;12.75;;;;;;;;4983175;28;11719;-81
2023/03/07 07:07:42;;;;;;;;;21.00;20.75;;;;;;;;4981372;28;11741;-81
2023/03/07 07:10:11;;;;;;;;;21.00;19.75;;;;;;;;4983372;28;11586;-80
2023/03/07 07:12:38;;;;;;;;;25.75;20.00;;;;;;;;4983328;28;11604;-78
2023/03/07 07:15:07;;;;;;;;;27.50;23.25;;;;;;;;4977461;28;11777;-77
2023/03/07 07:17:38;;;;;;;;;20.25;20.25;;;;;;;;4972311;28;11591;-78
2023/03/07 07:20:08;;;;;;;;;21.75;19.75;;;;;;;;4971966;28;11601;-75
2023/03/07 07:22:35;;;;;;;;;20.50;20.50;;;;;;;;4977428;28;11605;-75
2023/03/07 07:25:03;;;;;;;;;29.25;26.75;;;;;;;;4967474;28;11593;-74
2023/03/07 07:27:30;;;;;;;;;25.00;21.25;;;;;;;;4971153;28;11592;-75
2023/03/07 07:29:58;;;;;;;;;25.25;22.25;;;;;;;;4977524;28;11613;-77
2023/03/07 07:32:25;;;;;;;;;26.00;25.00;;;;;;;;4976840;28;11630;-78
2023/03/07 07:34:57;;;;;;;;;27.25;20.00;;;;;;;;4982605;28;11619;-76
2023/03/07 07:37:25;;;;;;;;;21.50;21.00;;;;;;;;4973558;28;11771;-77
2023/03/07 07:39:53;;;;;;;;;20.25;16.75;;;;;;;;4974421;28;11612;-74
2023/03/07 07:42:22;;;;;;;;;18.25;18.25;;;;;;;;4974225;28;12387;-76
2023/03/07 07:44:51;;;;;;;;;20.50;19.00;;;;;;;;4977717;28;11604;-78
2023/03/07 07:47:25;;;;;;;;;17.50;17.50;;;;;;;;4972899;28;11732;-75
2023/03/07 07:50:06;;;;;;;;;30.25;21.75;;;;;;;;4973645;28;11626;-78
2023/03/07 07:52:33;;;;;;;;;22.75;22.75;;;;;;;;4973227;28;11718;-77
2023/03/07 07:55:00;;;;;;;;;26.00;19.50;;;;;;;;4967261;28;11724;-78
2023/03/07 07:57:28;;;;;;;;;24.50;18.50;;;;;;;;4972110;28;11740;-77
2023/03/07 07:59:55;;;;;;;;;21.50;21.50;;;;;;;;4969892;28;11643;-77
2023/03/07 08:02:24;;;;;;;;;16.75;16.75;;;;;;;;4971251;28;12739;-76
2023/03/07 08:04:52;;;;;;;;;21.50;19.50;;;;;;;;4967540;28;11591;-75
2023/03/07 08:07:20;;;;;;;;;19.75;19.50;;;;;;;;4974205;28;12497;-74
2023/03/07 08:09:48;;;;;;;;;20.00;20.00;;;;;;;;4969018;28;11635;-75
2023/03/07 08:12:16;;;;;;;;;21.75;15.75;;;;;;;;4966068;28;11620;-72
2023/03/07 08:14:43;;;;;;;;;25.25;20.25;;;;;;;;4965239;28;11585;-73
2023/03/07 08:17:11;;;;;;;;;19.00;16.25;;;;;;;;4949752;28;11659;-73
2023/03/07 08:19:38;;;;;;;;;21.75;21.25;;;;;;;;4969488;28;11945;-73
2023/03/07 08:22:06;;;;;;;;;15.00;12.25;;;;;;;;4974864;28;12392;-75
2023/03/07 08:24:37;;;;;;;;;17.00;15.75;;;;;;;;4970441;28;11607;-74
2023/03/07 08:27:04;;;;;;;;;17.25;17.25;;;;;;;;4969558;28;11607;-73
2023/03/07 08:29:34;;;;;;;;;19.50;17.50;;;;;;;;4972354;28;11635;-74
2023/03/07 08:32:01;;;;;;;;;17.00;14.25;;;;;;;;4976685;28;11634;-75
2023/03/07 08:34:28;;;;;;;;;21.50;16.75;;;;;;;;4973844;28;11582;-74
2023/03/07 08:36:56;;;;;;;;;17.75;17.75;;;;;;;;4972341;28;11620;-75
2023/03/07 08:39:26;;;;;;;;;21.25;17.50;;;;;;;;4971290;28;11611;-74
2023/03/07 08:41:55;;;;;;;;;19.25;16.00;;;;;;;;4976731;28;11665;-76
2023/03/07 08:44:23;;;;;;;;;15.00;15.00;;;;;;;;4971938;28;11677;-77
2023/03/07 08:46:50;;;;;;;;;17.00;14.25;;;;;;;;4976487;28;11581;-75
2023/03/07 08:49:18;;;;;;;;;16.50;16.00;;;;;;;;4973426;28;11611;-78
2023/03/07 08:51:47;;;;;;;;;21.00;17.50;;;;;;;;4979129;28;11633;-75
2023/03/07 08:54:16;;;;;;;;;17.50;17.50;;;;;;;;4976071;28;11643;-76
2023/03/07 08:56:44;;;;;;;;;14.25;12.00;;;;;;;;4971165;28;11677;-75
2023/03/07 08:59:14;;;;;;;;;18.25;17.00;;;;;;;;4971976;28;11643;-75
2023/03/07 09:01:41;;;;;;;;;16.75;16.75;;;;;;;;4980666;28;11573;-76
2023/03/07 09:04:09;;;;;;;;;19.25;18.50;;;;;;;;4972693;28;11637;-77
2023/03/07 09:06:40;;;;;;;;;13.75;13.75;;;;;;;;4975351;28;11632;-75
2023/03/07 09:09:08;;;;;;;;;18.25;15.75;;;;;;;;4970513;28;11561;-77
2023/03/07 09:11:36;;;;;;;;;23.75;16.75;;;;;;;;4973113;28;12446;-77
2023/03/07 09:14:05;;;;;;;;;18.25;16.25;;;;;;;;4977452;28;11747;-78
2023/03/07 09:16:34;;;;;;;;;16.75;16.00;;;;;;;;4975604;28;11624;-76
2023/03/07 09:19:05;;;;;;;;;20.00;16.75;;;;;;;;4957627;28;11651;-76
2023/03/07 09:21:37;;;;;;;;;19.50;16.25;;;;;;;;4980356;28;11595;-79
2023/03/07 09:24:06;;;;;;;;;18.00;16.50;;;;;;;;4982052;28;11629;-77
2023/03/07 09:26:36;;;;;;;;;17.25;15.50;;;;;;;;4975144;28;11590;-79
2023/03/07 09:29:21;;;;;;;;;16.50;14.25;;;;;;;;4979549;28;11706;-79
2023/03/07 09:31:51;;;;;;;;;15.75;15.75;;;;;;;;4976492;28;11596;-77
2023/03/07 09:34:18;;;;;;;;;15.50;15.50;;;;;;;;4974028;28;11796;-77
2023/03/07 09:36:51;;;;;;;;;18.00;18.00;;;;;;;;4970759;28;11629;-78
2023/03/07 09:39:18;;;;;;;;;22.00;18.00;;;;;;;;4975222;28;11625;-77
2023/03/07 09:42:04;;;;;;;;;18.00;18.00;;;;;;;;4971648;28;11633;-76
2023/03/07 09:44:51;;;;;;;;;20.25;16.25;;;;;;;;4974563;28;11601;-77
2023/03/07 09:47:59;;;;;;;;;18.50;14.00;;;;;;;;4968493;28;11618;-77
2023/03/07 09:50:34;;;;;;;;;18.50;17.50;;;;;;;;4975925;28;12156;-75
2023/03/07 09:53:04;;;;;;;;;22.00;19.00;;;;;;;;4977480;28;11732;-78
2023/03/07 09:55:43;;;;;;;;;16.00;16.00;;;;;;;;4979783;28;12013;-76
2023/03/07 09:58:16;;;;;;;;;18.75;16.75;;;;;;;;4977560;28;11591;-78
2023/03/07 10:00:51;;;;;;;;;15.75;13.75;;;;;;;;4976876;28;11640;-79
2023/03/07 10:03:31;;;;;;;;;18.75;16.50;;;;;;;;4975102;28;11718;-78
2023/03/07 10:06:11;;;;;;;;;13.50;13.50;;;;;;;;4980663;28;11625;-76
2023/03/07 10:08:38;;;;;;;;;13.50;13.50;;;;;;;;4970315;28;11746;-78
2023/03/07 10:11:18;;;;;;;;;16.00;12.50;;;;;;;;4974779;28;11618;-77
2023/03/07 10:14:13;;;;;;;;;20.25;16.75;;;;;;;;4972035;28;11600;-79
2023/03/07 10:16:52;;;;;;;;;14.00;10.00;;;;;;;;4970897;28;11716;-79
2023/03/07 10:19:30;;;;;;;;;12.75;11.75;;;;;;;;4972920;28;11740;-77
2023/03/07 10:22:05;;;;;;;;;14.25;14.25;;;;;;;;4973799;28;11729;-75
2023/03/07 10:24:46;;;;;;;;;8.75;8.75;;;;;;;;4976676;28;11592;-78
2023/03/07 10:27:25;;;;;;;;;13.00;11.00;;;;;;;;4969611;28;11593;-76
2023/03/07 10:30:08;;;;;;;;;16.50;13.00;;;;;;;;4972173;28;11706;-77
2023/03/07 10:32:39;;;;;;;;;17.25;14.25;;;;;;;;4971043;28;11618;-79
2023/03/07 10:35:19;;;;;;;;;18.75;14.25;;;;;;;;4971011;28;11642;-78
2023/03/07 10:37:57;;;;;;;;;20.75;16.25;;;;;;;;4975699;28;12381;-83
2023/03/07 10:40:30;;;;;;;;;19.50;15.00;;;;;;;;4972787;28;11741;-74
2023/03/07 10:42:59;;;;;;;;;13.00;12.00;;;;;;;;4977663;28;11615;-81
2023/03/07 10:45:30;;;;;;;;;13.25;13.25;;;;;;;;4969882;28;11671;-78
2023/03/07 10:48:05;;;;;;;;;12.00;10.00;;;;;;;;4971205;28;11610;-78
2023/03/07 10:50:39;;;;;;;;;16.50;14.25;;;;;;;;4969653;28;11646;-78
2023/03/07 10:53:23;;;;;;;;;10.50;10.00;;;;;;;;4974154;28;11595;-77
2023/03/07 10:56:15;;;;;;;;;9.75;9.75;;;;;;;;4965570;28;11887;-81
2023/03/07 10:59:03;;;;;;;;;13.75;12.75;;;;;;;;4976640;28;11591;-76
2023/03/07 11:01:34;;;;;;;;;15.00;11.50;;;;;;;;4976911;28;11610;-76
2023/03/07 11:04:03;;;;;;;;;10.75;10.75;;;;;;;;4969646;28;12397;-78
2023/03/07 11:06:37;;;;;;;;;12.75;9.50;;;;;;;;4970628;28;11511;-78
2023/03/07 11:09:28;;;;;;;;;8.00;8.00;;;;;;;;4973744;28;11782;-78
2023/03/07 11:12:01;;;;;;;;;10.50;10.50;;;;;;;;4949901;28;11523;-76
2023/03/07 11:14:30;;;;;;;;;14.00;10.00;;;;;;;;4978566;28;11575;-79
2023/03/07 11:16:59;;;;;;;;;8.75;7.50;;;;;;;;4975072;28;11600;-77
2023/03/07 11:19:39;;;;;;;;;9.00;9.00;;;;;;;;4975918;28;11590;-75
2023/03/07 11:22:19;;;;;;;;;10.25;10.25;;;;;;;;4968373;28;11529;-77
2023/03/07 11:24:55;;;;;;;;;9.00;9.00;;;;;;;;4977992;28;11501;-77
2023/03/07 11:27:27;;;;;;;;;10.25;8.50;;;;;;;;4989216;28;11501;-80
2023/03/07 11:30:08;;;;;;;;;10.00;10.00;;;;;;;;4977576;28;11546;-77
2023/03/07 11:33:00;;;;;;;;;13.50;13.50;;;;;;;;4971400;28;11549;-79
2023/03/07 11:36:02;;;;;;;;;5.75;4.25;;;;;;;;4978487;28;11527;-79
2023/03/07 11:38:43;;;;;;;;;12.25;9.50;;;;;;;;4972940;28;11552;-74
2023/03/07 11:41:19;;;;;;;;;7.00;7.00;;;;;;;;4969863;28;11531;-82
2023/03/07 11:44:05;;;;;;;;;15.25;10.75;;;;;;;;4977382;28;11642;-80
2023/03/07 11:46:43;;;;;;;;;13.00;10.00;;;;;;;;4972510;28;11535;-80
2023/03/07 11:49:24;;;;;;;;;18.25;14.50;;;;;;;;4978761;28;11500;-80
2023/03/07 11:52:03;;;;;;;;;16.50;14.50;;;;;;;;4980529;28;11798;-79
2023/03/07 11:54:37;;;;;;;;;9.25;9.00;;;;;;;;4977427;28;11665;-80
2023/03/07 11:57:15;;;;;;;;;15.75;12.75;;;;;;;;4968141;28;11257;-78
2023/03/07 12:00:04;;;;;;;;;11.50;10.00;;;;;;;;4973951;28;12358;-78
2023/03/07 12:02:52;;;;;;;;;15.75;12.50;;;;;;;;4974694;28;12069;-76
2023/03/07 12:05:39;;;;;;;;;13.50;10.25;;;;;;;;4975794;28;11216;-79
2023/03/07 12:08:40;;;;;;;;;11.00;9.00;;;;;;;;4973894;28;11026;-78
2023/03/07 12:11:23;;;;;;;;;9.50;9.25;;;;;;;;4943549;28;11054;-78
2023/03/07 12:13:59;;;;;;;;;8.25;8.25;;;;;;;;4976910;28;11665;-74
2023/03/07 12:16:36;;;;;;;;;12.75;10.50;;;;;;;;4977347;28;12154;-76
2023/03/07 12:19:20;;;;;;;;;13.75;9.00;;;;;;;;4977137;28;11323;-79
2023/03/07 12:22:32;;;;;;;;;11.00;9.75;;;;;;;;4974263;28;11531;-74
2023/03/07 12:25:28;;;;;;;;;10.25;9.00;;;;;;;;4980074;28;11602;-73
2023/03/07 12:28:05;;;;;;;;;11.50;9.00;;;;;;;;4964286;28;11293;-73
2023/03/07 12:30:55;;;;;;;;;10.75;9.00;;;;;;;;4976271;28;11554;-75
2023/03/07 12:33:30;;;;;;;;;10.00;8.00;;;;;;;;4977687;28;11167;-74
2023/03/07 12:36:03;;;;;;;;;12.00;8.75;;;;;;;;4973136;28;11193;-74
2023/03/07 12:38:37;;;;;;;;;10.25;9.25;;;;;;;;4972444;28;11079;-74
2023/03/07 12:41:11;;;;;;;;;4.00;4.00;;;;;;;;4972089;28;11200;-74
2023/03/07 12:43:44;;;;;;;;;6.25;6.25;;;;;;;;4973364;28;10986;-75
2023/03/07 12:46:21;;;;;;;;;10.00;8.00;;;;;;;;4962673;28;11008;-74
2023/03/07 12:48:53;;;;;;;;;9.75;9.75;;;;;;;;4976282;28;11017;-73
2023/03/07 12:51:29;;;;;;;;;9.75;8.50;;;;;;;;4974980;28;11079;-74
2023/03/07 12:54:00;;;;;;;;;10.00;10.00;;;;;;;;4972261;28;11039;-74
2023/03/07 12:56:33;;;;;;;;;10.00;8.25;;;;;;;;4974938;28;11662;-74
2023/03/07 12:59:04;;;;;;;;;5.25;5.25;;;;;;;;4970634;28;11034;-74
2023/03/07 13:01:37;;;;;;;;;7.50;7.50;;;;;;;;4974005;28;10968;-74
2023/03/07 13:04:12;;;;;;;;;10.00;8.50;;;;;;;;4971700;28;10874;-72
2023/03/07 13:06:43;;;;;;;;;8.50;8.00;;;;;;;;4958860;28;11598;-73
2023/03/07 13:09:24;;;;;;;;;9.00;9.00;;;;;;;;4975622;28;10913;-75
2023/03/07 13:12:23;;;;;;;;;11.00;9.25;;;;;;;;4972109;28;10854;-74
2023/03/07 13:14:52;;;;;;;;;11.25;9.75;;;;;;;;4976989;28;11760;-73
2023/03/07 13:17:52;;;;;;;;;6.50;6.50;;;;;;;;4978193;28;11077;-74
2023/03/07 13:20:42;;;;;;;;;10.00;10.00;;;;;;;;4974458;28;10847;-74
2023/03/07 13:23:28;;;;;;;;;10.50;9.00;;;;;;;;4977774;28;10997;-73
2023/03/07 13:26:09;;;;;;;;;10.00;8.00;;;;;;;;4974234;28;10826;-73
2023/03/07 13:28:56;;;;;;;;;7.25;7.25;;;;;;;;4975659;28;11771;-73
2023/03/07 13:31:42;;;;;;;;;10.00;8.25;;;;;;;;4974155;28;10889;-73
2023/03/07 13:34:47;;;;;;;;;5.75;5.75;;;;;;;;4976239;28;11087;-73
2023/03/07 13:38:05;;;;;;;;;7.25;7.25;;;;;;;;4929560;29;11100;-73
2023/03/07 13:40:57;;;;;;;;;8.00;8.00;;;;;;;;4900350;29;11287;-73
2023/03/07 13:44:03;;;;;;;;;8.50;8.50;;;;;;;;4900637;29;12014;-74
2023/03/07 13:46:48;;;;;;;;;9.50;8.50;;;;;;;;4970561;28;11111;-74
2023/03/07 13:49:40;;;;;;;;;10.25;8.75;;;;;;;;4976158;28;11999;-73
2023/03/07 13:52:29;;;;;;;;;8.00;7.75;;;;;;;;4980966;28;11195;-74
2023/03/07 13:54:58;;;;;;;;;9.25;9.25;;;;;;;;4979035;28;11175;-73
2023/03/07 13:57:37;;;;;;;;;7.50;7.50;;;;;;;;4975550;28;11081;-73
2023/03/07 14:00:28;;;;;;;;;9.25;9.00;;;;;;;;4970629;28;11226;-73
2023/03/07 14:02:57;;;;;;;;;8.75;8.75;;;;;;;;4970380;28;11094;-75
2023/03/07 14:05:26;;;;;;;;;7.50;4.50;;;;;;;;4970152;28;11254;-76
2023/03/07 14:07:58;;;;;;;;;11.50;11.25;;;;;;;;4977225;28;10948;-78
2023/03/07 14:10:29;;;;;;;;;10.00;7.00;;;;;;;;4977366;28;11136;-75
2023/03/07 14:13:19;;;;;;;;;9.00;7.00;;;;;;;;4974621;28;12004;-75
2023/03/07 14:16:11;;;;;;;;;1.00;1.00;;;;;;;;4955338;28;10979;-75
2023/03/07 14:18:49;;;;;;;;;7.50;6.00;;;;;;;;4975434;28;10925;-75
2023/03/07 14:21:24;;;;;;;;;7.25;7.25;;;;;;;;4971930;28;11108;-76
2023/03/07 14:24:14;;;;;;;;;9.00;7.25;;;;;;;;4969853;28;11866;-75
2023/03/07 14:26:44;;;;;;;;;7.00;7.00;;;;;;;;4976463;28;11141;-76
2023/03/07 14:29:21;;;;;;;;;8.25;4.75;;;;;;;;4975331;28;11161;-74
2023/03/07 14:31:49;;;;;;;;;9.75;9.75;;;;;;;;4974538;28;11118;-74
2023/03/07 14:34:27;;;;;;;;;7.50;5.00;;;;;;;;4979417;28;11243;-75
2023/03/07 14:36:58;;;;;;;;;4.25;3.00;;;;;;;;4979909;28;11084;-76
2023/03/07 14:39:37;;;;;;;;;7.00;7.00;;;;;;;;4974947;28;11084;-79
2023/03/07 14:42:22;;;;;;;;;6.50;6.50;;;;;;;;4987357;28;11263;-79
2023/03/07 14:45:15;;;;;;;;;4.50;4.50;;;;;;;;4992730;28;11254;-79
2023/03/07 14:48:06;;;;;;;;;4.00;4.00;;;;;;;;4982593;28;11182;-78
2023/03/07 14:50:38;;;;;;;;;7.75;4.00;;;;;;;;4965081;28;11388;-82
2023/03/07 14:53:12;;;;;;;;;4.00;4.00;;;;;;;;4973948;28;11249;-75